sensor_id;sensor_type;location;lat;lon;timestamp;P1;durP1;ratioP1;P2;durP2;ratioP2
15748;SDS011;7976;52.526;13.326;2023-06-26T00:00:20;15.77;;;9.05;;
15748;SDS011;7976;52.526;13.326;2023-06-26T00:02:48;16.42;;;8.60;;
15748;SDS011;7976;52.526;13.326;2023-06-26T00:05:15;18.67;;;9.00;;
15748;SDS011;7976;52.526;13.326;2023-06-26T00:07:43;16.30;;;9.05;;
15748;SDS011;7976;52.526;13.326;2023-06-26T00:10:10;17.08;;;9.48;;
15748;SDS011;7976;52.526;13.326;2023-06-26T00:12:38;19.05;;;10.20;;
15748;SDS011;7976;52.526;13.326;2023-06-26T00:15:05;16.75;;;9.23;;
15748;SDS011;7976;52.526;13.326;2023-06-26T00:17:33;18.50;;;8.75;;
15748;SDS011;7976;52.526;13.326;2023-06-26T00:20:02;16.30;;;9.43;;
15748;SDS011;7976;52.526;13.326;2023-06-26T00:22:31;16.02;;;8.75;;
15748;SDS011;7976;52.526;13.326;2023-06-26T00:25:00;19.38;;;9.30;;
15748;SDS011;7976;52.526;13.326;2023-06-26T00:27:28;17.25;;;8.85;;
15748;SDS011;7976;52.526;13.326;2023-06-26T00:29:55;17.77;;;9.55;;
15748;SDS011;7976;52.526;13.326;2023-06-26T00:32:23;17.60;;;8.82;;
15748;SDS011;7976;52.526;13.326;2023-06-26T00:34:50;16.20;;;8.55;;
15748;SDS011;7976;52.526;13.326;2023-06-26T00:37:18;15.30;;;8.55;;
15748;SDS011;7976;52.526;13.326;2023-06-26T00:39:46;16.95;;;8.75;;
15748;SDS011;7976;52.526;13.326;2023-06-26T00:42:15;16.27;;;8.75;;
15748;SDS011;7976;52.526;13.326;2023-06-26T00:44:43;14.52;;;8.40;;
15748;SDS011;7976;52.526;13.326;2023-06-26T00:47:10;17.88;;;8.55;;
15748;SDS011;7976;52.526;13.326;2023-06-26T00:49:42;17.77;;;8.43;;
15748;SDS011;7976;52.526;13.326;2023-06-26T00:52:10;16.15;;;8.73;;
15748;SDS011;7976;52.526;13.326;2023-06-26T00:54:37;16.60;;;9.45;;
15748;SDS011;7976;52.526;13.326;2023-06-26T00:57:04;17.17;;;8.95;;
15748;SDS011;7976;52.526;13.326;2023-06-26T00:59:34;17.27;;;9.23;;
15748;SDS011;7976;52.526;13.326;2023-06-26T01:02:01;16.25;;;9.00;;
15748;SDS011;7976;52.526;13.326;2023-06-26T01:04:28;16.45;;;8.60;;
15748;SDS011;7976;52.526;13.326;2023-06-26T01:06:57;14.35;;;8.40;;
15748;SDS011;7976;52.526;13.326;2023-06-26T01:09:27;17.65;;;8.95;;
15748;SDS011;7976;52.526;13.326;2023-06-26T01:11:56;15.13;;;8.40;;
15748;SDS011;7976;52.526;13.326;2023-06-26T01:14:24;16.38;;;7.90;;
15748;SDS011;7976;52.526;13.326;2023-06-26T01:16:52;17.35;;;8.70;;
15748;SDS011;7976;52.526;13.326;2023-06-26T01:19:23;15.35;;;8.73;;
15748;SDS011;7976;52.526;13.326;2023-06-26T01:21:54;18.08;;;8.38;;
15748;SDS011;7976;52.526;13.326;2023-06-26T01:24:31;17.45;;;8.48;;
15748;SDS011;7976;52.526;13.326;2023-06-26T01:27:04;16.23;;;8.27;;
15748;SDS011;7976;52.526;13.326;2023-06-26T01:29:33;16.25;;;8.73;;
15748;SDS011;7976;52.526;13.326;2023-06-26T01:32:02;15.85;;;8.98;;
15748;SDS011;7976;52.526;13.326;2023-06-26T01:34:30;15.15;;;7.85;;
15748;SDS011;7976;52.526;13.326;2023-06-26T01:36:58;16.00;;;8.70;;
15748;SDS011;7976;52.526;13.326;2023-06-26T01:39:25;15.68;;;8.05;;
15748;SDS011;7976;52.526;13.326;2023-06-26T01:41:51;16.70;;;9.07;;
15748;SDS011;7976;52.526;13.326;2023-06-26T01:44:25;14.60;;;8.27;;
15748;SDS011;7976;52.526;13.326;2023-06-26T01:46:58;14.77;;;8.38;;
15748;SDS011;7976;52.526;13.326;2023-06-26T01:49:39;15.55;;;8.82;;
15748;SDS011;7976;52.526;13.326;2023-06-26T01:52:14;17.55;;;9.70;;
15748;SDS011;7976;52.526;13.326;2023-06-26T01:54:55;17.10;;;9.82;;
15748;SDS011;7976;52.526;13.326;2023-06-26T01:57:28;14.50;;;8.52;;
15748;SDS011;7976;52.526;13.326;2023-06-26T02:00:01;18.38;;;9.57;;
15748;SDS011;7976;52.526;13.326;2023-06-26T02:02:39;17.13;;;9.40;;
15748;SDS011;7976;52.526;13.326;2023-06-26T02:08:45;17.55;;;9.70;;
15748;SDS011;7976;52.526;13.326;2023-06-26T02:11:12;18.50;;;9.95;;
15748;SDS011;7976;52.526;13.326;2023-06-26T02:13:39;19.27;;;9.85;;
15748;SDS011;7976;52.526;13.326;2023-06-26T02:16:08;18.10;;;9.50;;
15748;SDS011;7976;52.526;13.326;2023-06-26T02:18:35;17.00;;;9.70;;
15748;SDS011;7976;52.526;13.326;2023-06-26T02:21:02;15.90;;;9.00;;
15748;SDS011;7976;52.526;13.326;2023-06-26T02:23:30;18.13;;;10.65;;
15748;SDS011;7976;52.526;13.326;2023-06-26T02:25:57;17.15;;;9.35;;
15748;SDS011;7976;52.526;13.326;2023-06-26T02:28:24;16.98;;;9.68;;
15748;SDS011;7976;52.526;13.326;2023-06-26T02:30:51;16.30;;;9.30;;
15748;SDS011;7976;52.526;13.326;2023-06-26T02:33:19;18.15;;;10.50;;
15748;SDS011;7976;52.526;13.326;2023-06-26T02:35:48;15.75;;;9.27;;
15748;SDS011;7976;52.526;13.326;2023-06-26T02:38:16;18.63;;;9.77;;
15748;SDS011;7976;52.526;13.326;2023-06-26T02:40:43;18.67;;;9.80;;
15748;SDS011;7976;52.526;13.326;2023-06-26T02:43:10;17.98;;;10.02;;
15748;SDS011;7976;52.526;13.326;2023-06-26T02:45:37;15.35;;;8.98;;
15748;SDS011;7976;52.526;13.326;2023-06-26T02:48:04;16.23;;;9.65;;
15748;SDS011;7976;52.526;13.326;2023-06-26T02:50:33;15.70;;;9.05;;
15748;SDS011;7976;52.526;13.326;2023-06-26T02:53:06;16.15;;;9.93;;
15748;SDS011;7976;52.526;13.326;2023-06-26T02:55:35;18.65;;;9.70;;
15748;SDS011;7976;52.526;13.326;2023-06-26T02:58:02;18.55;;;10.52;;
15748;SDS011;7976;52.526;13.326;2023-06-26T03:00:29;18.02;;;9.90;;
15748;SDS011;7976;52.526;13.326;2023-06-26T03:02:57;17.45;;;10.00;;
15748;SDS011;7976;52.526;13.326;2023-06-26T03:05:25;17.75;;;10.20;;
15748;SDS011;7976;52.526;13.326;2023-06-26T03:07:53;17.38;;;9.82;;
15748;SDS011;7976;52.526;13.326;2023-06-26T03:10:20;19.00;;;10.65;;
15748;SDS011;7976;52.526;13.326;2023-06-26T03:12:48;17.73;;;10.18;;
15748;SDS011;7976;52.526;13.326;2023-06-26T03:15:16;17.00;;;9.85;;
15748;SDS011;7976;52.526;13.326;2023-06-26T03:17:44;20.23;;;10.30;;
15748;SDS011;7976;52.526;13.326;2023-06-26T03:20:16;17.35;;;9.98;;
15748;SDS011;7976;52.526;13.326;2023-06-26T03:22:50;18.02;;;9.60;;
15748;SDS011;7976;52.526;13.326;2023-06-26T03:25:20;19.10;;;10.52;;
15748;SDS011;7976;52.526;13.326;2023-06-26T03:27:48;18.33;;;10.40;;
15748;SDS011;7976;52.526;13.326;2023-06-26T03:30:17;15.65;;;9.65;;
15748;SDS011;7976;52.526;13.326;2023-06-26T03:32:48;18.50;;;11.27;;
15748;SDS011;7976;52.526;13.326;2023-06-26T03:35:16;20.17;;;10.18;;
15748;SDS011;7976;52.526;13.326;2023-06-26T03:37:43;18.77;;;10.27;;
15748;SDS011;7976;52.526;13.326;2023-06-26T03:40:10;17.05;;;10.35;;
15748;SDS011;7976;52.526;13.326;2023-06-26T03:42:39;17.38;;;10.27;;
15748;SDS011;7976;52.526;13.326;2023-06-26T03:45:06;19.48;;;10.82;;
15748;SDS011;7976;52.526;13.326;2023-06-26T03:47:34;19.23;;;10.95;;
15748;SDS011;7976;52.526;13.326;2023-06-26T03:50:01;19.88;;;10.65;;
15748;SDS011;7976;52.526;13.326;2023-06-26T03:52:29;20.38;;;10.52;;
15748;SDS011;7976;52.526;13.326;2023-06-26T03:54:56;18.90;;;10.82;;
15748;SDS011;7976;52.526;13.326;2023-06-26T03:57:23;17.83;;;9.75;;
15748;SDS011;7976;52.526;13.326;2023-06-26T03:59:52;17.95;;;10.15;;
15748;SDS011;7976;52.526;13.326;2023-06-26T04:02:20;17.75;;;10.65;;
15748;SDS011;7976;52.526;13.326;2023-06-26T04:04:48;17.38;;;9.93;;
15748;SDS011;7976;52.526;13.326;2023-06-26T04:07:14;17.38;;;10.30;;
15748;SDS011;7976;52.526;13.326;2023-06-26T04:09:41;17.85;;;10.75;;
15748;SDS011;7976;52.526;13.326;2023-06-26T04:12:08;17.08;;;10.73;;
15748;SDS011;7976;52.526;13.326;2023-06-26T04:14:36;15.73;;;9.77;;
15748;SDS011;7976;52.526;13.326;2023-06-26T04:17:04;17.23;;;9.65;;
15748;SDS011;7976;52.526;13.326;2023-06-26T04:19:31;18.25;;;10.90;;
15748;SDS011;7976;52.526;13.326;2023-06-26T04:21:58;16.80;;;9.95;;
15748;SDS011;7976;52.526;13.326;2023-06-26T04:24:26;16.15;;;10.43;;
15748;SDS011;7976;52.526;13.326;2023-06-26T04:26:53;18.75;;;10.60;;
15748;SDS011;7976;52.526;13.326;2023-06-26T04:29:22;18.92;;;9.98;;
15748;SDS011;7976;52.526;13.326;2023-06-26T04:31:50;17.33;;;9.73;;
15748;SDS011;7976;52.526;13.326;2023-06-26T04:34:19;16.83;;;9.77;;
15748;SDS011;7976;52.526;13.326;2023-06-26T04:36:46;19.50;;;9.90;;
15748;SDS011;7976;52.526;13.326;2023-06-26T04:39:15;17.30;;;9.80;;
15748;SDS011;7976;52.526;13.326;2023-06-26T04:41:43;17.63;;;10.73;;
15748;SDS011;7976;52.526;13.326;2023-06-26T04:44:10;19.75;;;10.55;;
15748;SDS011;7976;52.526;13.326;2023-06-26T04:46:37;17.70;;;10.07;;
15748;SDS011;7976;52.526;13.326;2023-06-26T04:49:06;17.15;;;9.93;;
15748;SDS011;7976;52.526;13.326;2023-06-26T04:51:34;16.40;;;9.55;;
15748;SDS011;7976;52.526;13.326;2023-06-26T04:54:05;17.42;;;9.90;;
15748;SDS011;7976;52.526;13.326;2023-06-26T04:56:33;16.90;;;8.80;;
15748;SDS011;7976;52.526;13.326;2023-06-26T04:59:00;17.83;;;9.80;;
15748;SDS011;7976;52.526;13.326;2023-06-26T05:01:27;15.43;;;8.90;;
15748;SDS011;7976;52.526;13.326;2023-06-26T05:03:55;16.05;;;9.32;;
15748;SDS011;7976;52.526;13.326;2023-06-26T05:06:22;16.05;;;9.25;;
15748;SDS011;7976;52.526;13.326;2023-06-26T05:08:50;15.40;;;8.38;;
15748;SDS011;7976;52.526;13.326;2023-06-26T05:11:17;16.45;;;8.85;;
15748;SDS011;7976;52.526;13.326;2023-06-26T05:13:44;16.98;;;9.63;;
15748;SDS011;7976;52.526;13.326;2023-06-26T05:16:11;20.67;;;11.23;;
15748;SDS011;7976;52.526;13.326;2023-06-26T05:18:37;15.85;;;9.88;;
15748;SDS011;7976;52.526;13.326;2023-06-26T05:21:05;15.90;;;9.02;;
15748;SDS011;7976;52.526;13.326;2023-06-26T05:23:33;16.13;;;9.65;;
15748;SDS011;7976;52.526;13.326;2023-06-26T05:26:02;16.95;;;9.15;;
15748;SDS011;7976;52.526;13.326;2023-06-26T05:28:30;16.70;;;9.20;;
15748;SDS011;7976;52.526;13.326;2023-06-26T05:30:58;16.27;;;9.57;;
15748;SDS011;7976;52.526;13.326;2023-06-26T05:33:26;18.17;;;10.38;;
15748;SDS011;7976;52.526;13.326;2023-06-26T05:35:54;15.43;;;9.02;;
15748;SDS011;7976;52.526;13.326;2023-06-26T05:38:22;15.55;;;9.10;;
15748;SDS011;7976;52.526;13.326;2023-06-26T05:40:49;15.30;;;8.90;;
15748;SDS011;7976;52.526;13.326;2023-06-26T05:43:18;17.50;;;9.23;;
15748;SDS011;7976;52.526;13.326;2023-06-26T05:45:46;16.48;;;9.32;;
15748;SDS011;7976;52.526;13.326;2023-06-26T05:48:14;16.75;;;9.80;;
15748;SDS011;7976;52.526;13.326;2023-06-26T05:50:42;17.27;;;9.55;;
15748;SDS011;7976;52.526;13.326;2023-06-26T05:53:10;16.83;;;9.85;;
15748;SDS011;7976;52.526;13.326;2023-06-26T05:55:37;16.30;;;9.90;;
15748;SDS011;7976;52.526;13.326;2023-06-26T05:58:07;16.52;;;9.60;;
15748;SDS011;7976;52.526;13.326;2023-06-26T06:00:39;17.50;;;10.10;;
15748;SDS011;7976;52.526;13.326;2023-06-26T06:03:06;18.35;;;9.13;;
15748;SDS011;7976;52.526;13.326;2023-06-26T06:05:34;18.15;;;9.75;;
15748;SDS011;7976;52.526;13.326;2023-06-26T06:08:02;16.85;;;9.23;;
15748;SDS011;7976;52.526;13.326;2023-06-26T06:10:29;15.77;;;8.32;;
15748;SDS011;7976;52.526;13.326;2023-06-26T06:12:56;16.35;;;9.60;;
15748;SDS011;7976;52.526;13.326;2023-06-26T06:15:23;15.82;;;8.63;;
15748;SDS011;7976;52.526;13.326;2023-06-26T06:17:51;14.25;;;8.32;;
15748;SDS011;7976;52.526;13.326;2023-06-26T06:20:18;15.13;;;8.15;;
15748;SDS011;7976;52.526;13.326;2023-06-26T06:22:46;13.25;;;7.07;;
15748;SDS011;7976;52.526;13.326;2023-06-26T06:25:14;14.18;;;8.00;;
15748;SDS011;7976;52.526;13.326;2023-06-26T06:27:41;16.23;;;8.02;;
15748;SDS011;7976;52.526;13.326;2023-06-26T06:30:08;14.68;;;7.40;;
15748;SDS011;7976;52.526;13.326;2023-06-26T06:32:37;12.32;;;7.03;;
15748;SDS011;7976;52.526;13.326;2023-06-26T06:35:06;12.75;;;6.72;;
15748;SDS011;7976;52.526;13.326;2023-06-26T06:37:34;14.88;;;6.53;;
15748;SDS011;7976;52.526;13.326;2023-06-26T06:40:04;13.77;;;6.22;;
15748;SDS011;7976;52.526;13.326;2023-06-26T06:42:33;12.38;;;6.47;;
15748;SDS011;7976;52.526;13.326;2023-06-26T06:45:01;12.48;;;6.65;;
15748;SDS011;7976;52.526;13.326;2023-06-26T06:47:28;15.02;;;6.35;;
15748;SDS011;7976;52.526;13.326;2023-06-26T06:49:55;12.15;;;6.10;;
15748;SDS011;7976;52.526;13.326;2023-06-26T06:52:23;13.00;;;6.18;;
15748;SDS011;7976;52.526;13.326;2023-06-26T06:54:50;10.80;;;5.45;;
15748;SDS011;7976;52.526;13.326;2023-06-26T06:57:18;11.65;;;5.70;;
15748;SDS011;7976;52.526;13.326;2023-06-26T06:59:46;12.30;;;5.68;;
15748;SDS011;7976;52.526;13.326;2023-06-26T07:02:14;11.45;;;5.65;;
15748;SDS011;7976;52.526;13.326;2023-06-26T07:04:41;12.70;;;6.00;;
15748;SDS011;7976;52.526;13.326;2023-06-26T07:07:08;13.05;;;5.85;;
15748;SDS011;7976;52.526;13.326;2023-06-26T07:09:36;11.98;;;5.72;;
15748;SDS011;7976;52.526;13.326;2023-06-26T07:12:04;13.23;;;5.82;;
15748;SDS011;7976;52.526;13.326;2023-06-26T07:14:32;12.68;;;6.07;;
15748;SDS011;7976;52.526;13.326;2023-06-26T07:16:58;11.30;;;5.70;;
15748;SDS011;7976;52.526;13.326;2023-06-26T07:19:25;14.95;;;5.50;;
15748;SDS011;7976;52.526;13.326;2023-06-26T07:21:52;12.00;;;5.72;;
15748;SDS011;7976;52.526;13.326;2023-06-26T07:24:19;14.07;;;6.47;;
15748;SDS011;7976;52.526;13.326;2023-06-26T07:26:47;11.68;;;5.80;;
15748;SDS011;7976;52.526;13.326;2023-06-26T07:29:14;10.90;;;5.30;;
15748;SDS011;7976;52.526;13.326;2023-06-26T07:31:41;11.70;;;5.82;;
15748;SDS011;7976;52.526;13.326;2023-06-26T07:34:10;12.30;;;5.95;;
15748;SDS011;7976;52.526;13.326;2023-06-26T07:36:37;12.05;;;5.70;;
15748;SDS011;7976;52.526;13.326;2023-06-26T07:39:03;13.10;;;6.10;;
15748;SDS011;7976;52.526;13.326;2023-06-26T07:41:31;11.20;;;5.25;;
15748;SDS011;7976;52.526;13.326;2023-06-26T07:43:59;10.95;;;5.60;;
15748;SDS011;7976;52.526;13.326;2023-06-26T07:46:26;13.10;;;5.50;;
15748;SDS011;7976;52.526;13.326;2023-06-26T07:48:53;12.15;;;5.30;;
15748;SDS011;7976;52.526;13.326;2023-06-26T07:51:20;9.88;;;5.13;;
15748;SDS011;7976;52.526;13.326;2023-06-26T07:53:47;11.75;;;5.32;;
15748;SDS011;7976;52.526;13.326;2023-06-26T07:56:13;11.85;;;5.63;;
15748;SDS011;7976;52.526;13.326;2023-06-26T07:58:40;14.88;;;5.88;;
15748;SDS011;7976;52.526;13.326;2023-06-26T08:01:08;11.88;;;5.25;;
15748;SDS011;7976;52.526;13.326;2023-06-26T08:03:36;10.40;;;5.35;;
15748;SDS011;7976;52.526;13.326;2023-06-26T08:06:03;11.25;;;4.90;;
15748;SDS011;7976;52.526;13.326;2023-06-26T08:08:30;11.13;;;5.28;;
15748;SDS011;7976;52.526;13.326;2023-06-26T08:10:56;10.90;;;5.35;;
15748;SDS011;7976;52.526;13.326;2023-06-26T08:13:24;11.73;;;4.90;;
15748;SDS011;7976;52.526;13.326;2023-06-26T08:15:51;10.18;;;5.25;;
15748;SDS011;7976;52.526;13.326;2023-06-26T08:18:19;11.35;;;5.30;;
15748;SDS011;7976;52.526;13.326;2023-06-26T08:20:46;10.30;;;5.10;;
15748;SDS011;7976;52.526;13.326;2023-06-26T08:23:13;11.88;;;4.97;;
15748;SDS011;7976;52.526;13.326;2023-06-26T08:25:40;12.60;;;4.82;;
15748;SDS011;7976;52.526;13.326;2023-06-26T08:28:07;10.10;;;4.60;;
15748;SDS011;7976;52.526;13.326;2023-06-26T08:30:33;9.93;;;4.88;;
15748;SDS011;7976;52.526;13.326;2023-06-26T08:33:00;9.45;;;4.28;;
15748;SDS011;7976;52.526;13.326;2023-06-26T08:35:28;11.48;;;5.13;;
15748;SDS011;7976;52.526;13.326;2023-06-26T08:37:55;11.40;;;5.18;;
15748;SDS011;7976;52.526;13.326;2023-06-26T08:40:22;10.40;;;4.28;;
15748;SDS011;7976;52.526;13.326;2023-06-26T08:42:50;11.45;;;4.60;;
15748;SDS011;7976;52.526;13.326;2023-06-26T08:45:18;9.90;;;5.13;;
15748;SDS011;7976;52.526;13.326;2023-06-26T08:47:46;10.40;;;4.50;;
15748;SDS011;7976;52.526;13.326;2023-06-26T08:50:19;12.13;;;5.20;;
15748;SDS011;7976;52.526;13.326;2023-06-26T08:52:53;13.98;;;5.65;;
15748;SDS011;7976;52.526;13.326;2023-06-26T08:55:31;11.18;;;4.63;;
15748;SDS011;7976;52.526;13.326;2023-06-26T08:58:04;13.77;;;5.03;;
15748;SDS011;7976;52.526;13.326;2023-06-26T09:00:31;11.23;;;4.65;;
15748;SDS011;7976;52.526;13.326;2023-06-26T09:02:58;14.77;;;6.15;;
15748;SDS011;7976;52.526;13.326;2023-06-26T09:05:26;13.05;;;5.78;;
15748;SDS011;7976;52.526;13.326;2023-06-26T09:07:56;14.48;;;5.20;;
15748;SDS011;7976;52.526;13.326;2023-06-26T09:10:23;10.20;;;4.40;;
15748;SDS011;7976;52.526;13.326;2023-06-26T09:12:50;10.10;;;4.50;;
15748;SDS011;7976;52.526;13.326;2023-06-26T09:15:21;10.63;;;4.00;;
15748;SDS011;7976;52.526;13.326;2023-06-26T09:17:48;10.32;;;4.22;;
15748;SDS011;7976;52.526;13.326;2023-06-26T09:20:15;10.32;;;4.40;;
15748;SDS011;7976;52.526;13.326;2023-06-26T09:22:43;11.60;;;4.35;;
15748;SDS011;7976;52.526;13.326;2023-06-26T09:25:15;9.65;;;4.13;;
15748;SDS011;7976;52.526;13.326;2023-06-26T09:27:47;9.50;;;4.28;;
15748;SDS011;7976;52.526;13.326;2023-06-26T09:30:16;9.13;;;4.03;;
15748;SDS011;7976;52.526;13.326;2023-06-26T09:32:44;9.88;;;4.40;;
15748;SDS011;7976;52.526;13.326;2023-06-26T09:35:11;9.27;;;3.88;;
15748;SDS011;7976;52.526;13.326;2023-06-26T09:37:38;9.75;;;4.35;;
15748;SDS011;7976;52.526;13.326;2023-06-26T09:40:06;8.43;;;4.05;;
15748;SDS011;7976;52.526;13.326;2023-06-26T09:42:35;9.00;;;4.57;;
15748;SDS011;7976;52.526;13.326;2023-06-26T09:45:03;10.52;;;4.25;;
15748;SDS011;7976;52.526;13.326;2023-06-26T09:47:34;11.52;;;4.97;;
15748;SDS011;7976;52.526;13.326;2023-06-26T09:50:02;10.48;;;3.92;;
15748;SDS011;7976;52.526;13.326;2023-06-26T09:52:29;8.70;;;3.92;;
15748;SDS011;7976;52.526;13.326;2023-06-26T09:55:08;8.65;;;4.20;;
15748;SDS011;7976;52.526;13.326;2023-06-26T09:57:38;9.40;;;4.25;;
15748;SDS011;7976;52.526;13.326;2023-06-26T10:00:07;11.70;;;4.40;;
15748;SDS011;7976;52.526;13.326;2023-06-26T10:02:40;10.55;;;4.40;;
15748;SDS011;7976;52.526;13.326;2023-06-26T10:05:07;11.88;;;5.22;;
15748;SDS011;7976;52.526;13.326;2023-06-26T10:07:34;9.73;;;4.43;;
15748;SDS011;7976;52.526;13.326;2023-06-26T10:10:03;10.65;;;4.75;;
15748;SDS011;7976;52.526;13.326;2023-06-26T10:12:34;11.30;;;5.32;;
15748;SDS011;7976;52.526;13.326;2023-06-26T10:15:02;13.30;;;5.50;;
15748;SDS011;7976;52.526;13.326;2023-06-26T10:17:32;9.95;;;4.60;;
15748;SDS011;7976;52.526;13.326;2023-06-26T10:20:04;11.18;;;4.82;;
15748;SDS011;7976;52.526;13.326;2023-06-26T10:22:36;10.77;;;4.78;;
15748;SDS011;7976;52.526;13.326;2023-06-26T10:25:10;11.63;;;4.88;;
15748;SDS011;7976;52.526;13.326;2023-06-26T10:27:41;12.85;;;5.00;;
15748;SDS011;7976;52.526;13.326;2023-06-26T10:30:17;11.85;;;4.60;;
15748;SDS011;7976;52.526;13.326;2023-06-26T10:32:50;12.15;;;4.57;;
15748;SDS011;7976;52.526;13.326;2023-06-26T10:35:18;8.93;;;4.10;;
15748;SDS011;7976;52.526;13.326;2023-06-26T10:37:46;10.15;;;4.35;;
15748;SDS011;7976;52.526;13.326;2023-06-26T10:40:21;9.23;;;4.30;;
15748;SDS011;7976;52.526;13.326;2023-06-26T10:42:51;11.02;;;4.82;;
15748;SDS011;7976;52.526;13.326;2023-06-26T10:45:34;9.75;;;4.85;;
15748;SDS011;7976;52.526;13.326;2023-06-26T10:48:02;9.07;;;4.30;;
15748;SDS011;7976;52.526;13.326;2023-06-26T10:50:30;9.52;;;4.47;;
15748;SDS011;7976;52.526;13.326;2023-06-26T10:53:09;10.07;;;4.90;;
15748;SDS011;7976;52.526;13.326;2023-06-26T10:55:43;11.68;;;4.38;;
15748;SDS011;7976;52.526;13.326;2023-06-26T10:58:31;11.68;;;4.82;;
15748;SDS011;7976;52.526;13.326;2023-06-26T11:04:00;9.55;;;4.32;;
15748;SDS011;7976;52.526;13.326;2023-06-26T11:06:31;9.55;;;4.35;;
15748;SDS011;7976;52.526;13.326;2023-06-26T11:09:00;11.20;;;4.70;;
15748;SDS011;7976;52.526;13.326;2023-06-26T11:11:55;9.73;;;4.65;;
15748;SDS011;7976;52.526;13.326;2023-06-26T11:14:30;9.27;;;4.40;;
15748;SDS011;7976;52.526;13.326;2023-06-26T11:17:01;10.30;;;4.32;;
15748;SDS011;7976;52.526;13.326;2023-06-26T11:19:30;8.82;;;4.35;;
15748;SDS011;7976;52.526;13.326;2023-06-26T11:22:03;9.50;;;4.53;;
15748;SDS011;7976;52.526;13.326;2023-06-26T11:24:31;10.23;;;4.70;;
15748;SDS011;7976;52.526;13.326;2023-06-26T11:27:00;9.60;;;4.38;;
15748;SDS011;7976;52.526;13.326;2023-06-26T11:29:29;12.07;;;4.45;;
15748;SDS011;7976;52.526;13.326;2023-06-26T11:32:00;11.27;;;4.72;;
15748;SDS011;7976;52.526;13.326;2023-06-26T11:34:30;10.55;;;4.32;;
15748;SDS011;7976;52.526;13.326;2023-06-26T11:36:59;12.55;;;4.95;;
15748;SDS011;7976;52.526;13.326;2023-06-26T11:39:29;10.98;;;5.60;;
15748;SDS011;7976;52.526;13.326;2023-06-26T11:41:56;9.63;;;4.35;;
15748;SDS011;7976;52.526;13.326;2023-06-26T11:44:25;9.73;;;4.75;;
15748;SDS011;7976;52.526;13.326;2023-06-26T11:46:56;10.43;;;4.72;;
15748;SDS011;7976;52.526;13.326;2023-06-26T11:49:25;8.73;;;4.22;;
15748;SDS011;7976;52.526;13.326;2023-06-26T11:51:55;10.85;;;5.00;;
15748;SDS011;7976;52.526;13.326;2023-06-26T11:54:25;10.18;;;4.88;;
15748;SDS011;7976;52.526;13.326;2023-06-26T11:56:56;12.57;;;4.65;;
15748;SDS011;7976;52.526;13.326;2023-06-26T11:59:33;11.02;;;4.75;;
15748;SDS011;7976;52.526;13.326;2023-06-26T12:02:04;10.80;;;5.00;;
15748;SDS011;7976;52.526;13.326;2023-06-26T12:04:34;11.57;;;4.85;;
15748;SDS011;7976;52.526;13.326;2023-06-26T12:07:05;11.73;;;5.32;;
15748;SDS011;7976;52.526;13.326;2023-06-26T12:09:34;12.15;;;5.03;;
15748;SDS011;7976;52.526;13.326;2023-06-26T12:12:06;11.50;;;4.82;;
15748;SDS011;7976;52.526;13.326;2023-06-26T12:14:35;12.43;;;5.60;;
15748;SDS011;7976;52.526;13.326;2023-06-26T12:17:08;10.18;;;4.70;;
15748;SDS011;7976;52.526;13.326;2023-06-26T12:19:38;10.95;;;5.20;;
15748;SDS011;7976;52.526;13.326;2023-06-26T12:22:06;12.25;;;5.18;;
15748;SDS011;7976;52.526;13.326;2023-06-26T12:24:35;9.52;;;4.95;;
15748;SDS011;7976;52.526;13.326;2023-06-26T12:27:07;9.50;;;4.75;;
15748;SDS011;7976;52.526;13.326;2023-06-26T12:29:36;11.05;;;5.13;;
15748;SDS011;7976;52.526;13.326;2023-06-26T12:32:08;9.73;;;4.97;;
15748;SDS011;7976;52.526;13.326;2023-06-26T12:34:38;10.65;;;4.93;;
15748;SDS011;7976;52.526;13.326;2023-06-26T12:37:06;10.55;;;5.10;;
15748;SDS011;7976;52.526;13.326;2023-06-26T12:39:48;10.20;;;5.00;;
15748;SDS011;7976;52.526;13.326;2023-06-26T12:42:17;10.07;;;4.82;;
15748;SDS011;7976;52.526;13.326;2023-06-26T12:44:45;11.35;;;5.38;;
15748;SDS011;7976;52.526;13.326;2023-06-26T12:47:13;11.02;;;5.28;;
15748;SDS011;7976;52.526;13.326;2023-06-26T12:49:43;11.52;;;5.22;;
15748;SDS011;7976;52.526;13.326;2023-06-26T12:52:15;10.35;;;5.28;;
15748;SDS011;7976;52.526;13.326;2023-06-26T12:54:44;12.45;;;5.82;;
15748;SDS011;7976;52.526;13.326;2023-06-26T12:57:12;12.20;;;5.45;;
15748;SDS011;7976;52.526;13.326;2023-06-26T12:59:40;10.45;;;5.13;;
15748;SDS011;7976;52.526;13.326;2023-06-26T13:02:07;12.45;;;5.50;;
15748;SDS011;7976;52.526;13.326;2023-06-26T13:04:36;11.80;;;6.18;;
15748;SDS011;7976;52.526;13.326;2023-06-26T13:07:06;10.98;;;5.30;;
15748;SDS011;7976;52.526;13.326;2023-06-26T13:09:33;10.82;;;5.75;;
15748;SDS011;7976;52.526;13.326;2023-06-26T13:12:02;12.77;;;6.13;;
15748;SDS011;7976;52.526;13.326;2023-06-26T13:14:30;10.38;;;5.47;;
15748;SDS011;7976;52.526;13.326;2023-06-26T13:16:58;12.20;;;6.90;;
15748;SDS011;7976;52.526;13.326;2023-06-26T13:19:26;11.98;;;6.45;;
15748;SDS011;7976;52.526;13.326;2023-06-26T13:21:54;12.10;;;5.95;;
15748;SDS011;7976;52.526;13.326;2023-06-26T13:24:22;12.13;;;5.95;;
15748;SDS011;7976;52.526;13.326;2023-06-26T13:26:49;12.00;;;5.72;;
15748;SDS011;7976;52.526;13.326;2023-06-26T13:29:15;11.57;;;5.60;;
15748;SDS011;7976;52.526;13.326;2023-06-26T13:31:42;10.65;;;5.75;;
15748;SDS011;7976;52.526;13.326;2023-06-26T13:34:09;12.80;;;5.47;;
15748;SDS011;7976;52.526;13.326;2023-06-26T13:36:47;12.02;;;5.60;;
15748;SDS011;7976;52.526;13.326;2023-06-26T13:39:14;11.68;;;5.40;;
15748;SDS011;7976;52.526;13.326;2023-06-26T13:41:42;12.07;;;6.22;;
15748;SDS011;7976;52.526;13.326;2023-06-26T13:44:09;14.80;;;6.38;;
15748;SDS011;7976;52.526;13.326;2023-06-26T13:46:36;13.55;;;6.15;;
15748;SDS011;7976;52.526;13.326;2023-06-26T13:49:03;11.88;;;5.95;;
15748;SDS011;7976;52.526;13.326;2023-06-26T13:51:29;11.85;;;6.00;;
15748;SDS011;7976;52.526;13.326;2023-06-26T13:53:56;12.80;;;6.40;;
15748;SDS011;7976;52.526;13.326;2023-06-26T13:56:25;13.27;;;6.07;;
15748;SDS011;7976;52.526;13.326;2023-06-26T13:58:53;13.80;;;6.78;;
15748;SDS011;7976;52.526;13.326;2023-06-26T14:01:20;11.20;;;5.80;;
15748;SDS011;7976;52.526;13.326;2023-06-26T14:03:48;11.13;;;5.85;;
15748;SDS011;7976;52.526;13.326;2023-06-26T14:06:15;13.88;;;5.43;;
15748;SDS011;7976;52.526;13.326;2023-06-26T14:08:42;13.50;;;6.88;;
15748;SDS011;7976;52.526;13.326;2023-06-26T14:11:08;10.50;;;5.82;;
15748;SDS011;7976;52.526;13.326;2023-06-26T14:13:35;12.82;;;5.60;;
15748;SDS011;7976;52.526;13.326;2023-06-26T14:16:04;15.35;;;5.57;;
15748;SDS011;7976;52.526;13.326;2023-06-26T14:18:31;13.15;;;6.00;;
15748;SDS011;7976;52.526;13.326;2023-06-26T14:20:58;17.42;;;6.72;;
15748;SDS011;7976;52.526;13.326;2023-06-26T14:23:25;14.77;;;5.95;;
15748;SDS011;7976;52.526;13.326;2023-06-26T14:25:52;16.48;;;5.90;;
15748;SDS011;7976;52.526;13.326;2023-06-26T14:28:19;12.27;;;5.53;;
15748;SDS011;7976;52.526;13.326;2023-06-26T14:30:46;14.68;;;4.40;;
15748;SDS011;7976;52.526;13.326;2023-06-26T14:33:14;12.63;;;4.30;;
15748;SDS011;7976;52.526;13.326;2023-06-26T14:35:41;12.77;;;4.57;;
15748;SDS011;7976;52.526;13.326;2023-06-26T14:38:08;13.75;;;4.68;;
15748;SDS011;7976;52.526;13.326;2023-06-26T14:40:34;15.82;;;4.72;;
15748;SDS011;7976;52.526;13.326;2023-06-26T14:43:01;12.77;;;5.05;;
15748;SDS011;7976;52.526;13.326;2023-06-26T14:45:28;12.15;;;4.50;;
15748;SDS011;7976;52.526;13.326;2023-06-26T14:47:55;14.50;;;6.40;;